Time;durP1;ratioP1;P1;durP2;ratioP2;P2;SDS_P1;SDS_P2;PMS_P1;PMS_P2;Temp;Humidity;BMP_temperature;BMP_pressure;BME280_temperature;BME280_humidity;BME280_pressure;Samples;Min_cycle;Max_cycle;Signal;HPM_P1;HPM_P2
2022/10/10 00:00:05;;;;;;;2.03;1.37;;;;;;;11.97;61.02;99059.84;5090076;28;42092;-79
2022/10/10 00:02:34;;;;;;;2.10;1.53;;;;;;;11.77;61.29;99035.44;5073634;28;43367;-78
2022/10/10 00:05:04;;;;;;;1.97;1.47;;;;;;;11.68;61.21;99033.34;5090790;28;41787;-79
2022/10/10 00:07:31;;;;;;;1.53;1.43;;;;;;;11.75;61.02;99060.34;5091734;28;41936;-79
2022/10/10 00:09:59;;;;;;;1.50;1.40;;;;;;;11.68;61.15;99059.88;5107862;28;44512;-79
2022/10/10 00:12:27;;;;;;;1.90;1.67;;;;;;;11.61;61.16;99053.28;5090536;28;42337;-79
2022/10/10 00:14:54;;;;;;;1.47;1.37;;;;;;;11.53;61.38;99052.88;5090872;28;40882;-79
2022/10/10 00:17:22;;;;;;;1.70;1.50;;;;;;;11.47;61.44;99061.25;5090578;28;40855;-78
2022/10/10 00:19:49;;;;;;;1.97;1.57;;;;;;;11.39;61.81;99055.56;5091851;28;43566;-79
2022/10/10 00:22:18;;;;;;;3.60;1.50;;;;;;;11.32;62.01;99051.59;5090305;28;41933;-79
2022/10/10 00:24:46;;;;;;;2.40;1.63;;;;;;;11.05;62.15;99014.41;5107561;28;42619;-79
2022/10/10 00:27:13;;;;;;;1.53;1.33;;;;;;;11.18;62.29;99048.94;5073336;28;40644;-79
2022/10/10 00:29:41;;;;;;;2.80;1.70;;;;;;;11.11;63.05;99049.34;5090675;28;42877;-79
2022/10/10 00:32:08;;;;;;;3.00;1.70;;;;;;;11.04;62.82;99050.66;5125940;27;42481;-78
2022/10/10 00:34:36;;;;;;;1.97;1.70;;;;;;;10.99;62.83;99049.25;5074555;28;40576;-79
2022/10/10 00:37:04;;;;;;;2.83;2.10;;;;;;;10.91;63.17;99038.25;5125930;27;42756;-79
2022/10/10 00:39:33;;;;;;;3.13;2.20;;;;;;;10.88;63.00;99036.63;5074575;28;41805;-78
2022/10/10 00:42:00;;;;;;;3.17;1.70;;;;;;;10.85;63.38;99039.47;5125617;27;42168;-78
2022/10/10 00:44:28;;;;;;;1.93;1.53;;;;;;;10.79;62.99;99037.19;5091511;28;39323;-79
2022/10/10 00:46:56;;;;;;;2.27;1.60;;;;;;;10.77;63.05;99039.06;5091533;28;42342;-78
2022/10/10 00:49:30;;;;;;;1.97;1.80;;;;;;;10.62;63.47;99018.81;5091385;28;42767;-78
2022/10/10 00:52:00;;;;;;;2.57;1.60;;;;;;;10.70;63.58;99037.75;5074369;28;41304;-79
2022/10/10 00:54:28;;;;;;;2.97;1.57;;;;;;;10.66;63.79;99030.91;5091160;28;39181;-78
2022/10/10 00:57:01;;;;;;;1.70;1.50;;;;;;;10.62;63.92;99037.38;5074265;28;40704;-78
2022/10/10 00:59:31;;;;;;;3.10;1.50;;;;;;;10.58;63.98;99038.47;5106642;28;42966;-79
2022/10/10 01:01:59;;;;;;;1.87;1.40;;;;;;;10.46;63.93;99015.38;5090950;28;43035;-79
2022/10/10 01:04:35;;;;;;;3.80;1.60;;;;;;;10.53;64.46;99030.81;5089916;28;40765;-79
2022/10/10 01:07:06;;;;;;;1.93;1.30;;;;;;;10.49;64.04;99026.66;5086838;28;42595;-78
2022/10/10 01:09:35;;;;;;;1.60;1.50;;;;;;;10.47;64.33;99025.03;5090076;28;43292;-79
2022/10/10 01:12:17;;;;;;;2.00;1.70;;;;;;;10.17;64.29;98985.28;5089757;28;41608;-79
2022/10/10 01:14:50;;;;;;;1.77;1.40;;;;;;;10.39;64.14;99026.31;5072845;28;39639;-78
2022/10/10 01:17:24;;;;;;;2.60;1.57;;;;;;;10.36;64.31;99023.88;5087982;28;41895;-79
2022/10/10 01:20:26;;;;;;;2.07;1.70;;;;;;;10.33;64.73;99024.03;5088003;28;43210;-79
2022/10/10 01:23:12;;;;;;;1.97;1.57;;;;;;;10.23;64.55;99007.00;5088449;28;42176;-78
2022/10/10 01:25:55;;;;;;;1.70;1.60;;;;;;;10.00;64.74;98970.44;5089484;28;41206;-78
2022/10/10 01:28:38;;;;;;;2.63;1.80;;;;;;;10.25;65.12;99015.72;5090505;28;41877;-78
2022/10/10 01:31:08;;;;;;;3.33;1.57;;;;;;;10.21;65.11;99014.19;5090841;28;44448;-78
2022/10/10 01:33:43;;;;;;;1.60;1.50;;;;;;;10.09;65.27;98991.03;5090179;28;42411;-78
2022/10/10 01:36:21;;;;;;;4.13;2.17;;;;;;;10.21;64.88;99018.63;5088967;28;41149;-79
2022/10/10 01:38:56;;;;;;;2.23;1.70;;;;;;;10.08;65.21;98998.13;5109808;27;42279;-78
2022/10/10 01:41:28;;;;;;;3.07;1.57;;;;;;;10.04;64.79;98998.38;5092235;28;43846;-79
2022/10/10 01:43:59;;;;;;;2.03;1.60;;;;;;;10.08;64.69;99005.22;5127023;27;42338;-78
2022/10/10 01:46:27;;;;;;;1.87;1.60;;;;;;;10.09;64.94;99012.22;5125444;27;40070;-79
2022/10/10 01:48:58;;;;;;;1.93;1.73;;;;;;;9.93;64.79;98992.88;5076922;28;40735;-79
2022/10/10 01:51:39;;;;;;;1.73;1.60;;;;;;;10.02;65.08;99010.84;5123206;27;43275;-79
2022/10/10 01:54:21;;;;;;;2.33;1.70;;;;;;;10.00;65.04;99004.81;5092798;28;42453;-79
2022/10/10 01:56:59;;;;;;;2.70;1.50;;;;;;;9.94;64.81;99005.16;5127239;27;40630;-79
2022/10/10 01:59:41;;;;;;;2.50;2.00;;;;;;;9.84;65.19;98988.13;5092992;28;40792;-79
2022/10/10 02:02:16;;;;;;;2.80;1.87;;;;;;;9.77;65.01;98981.47;5092768;28;43706;-80
2022/10/10 02:04:53;;;;;;;2.10;1.50;;;;;;;9.88;64.84;99002.88;5076402;28;41225;-79
2022/10/10 02:07:27;;;;;;;1.70;1.50;;;;;;;9.85;65.09;98998.59;5089992;28;39976;-79
2022/10/10 02:09:55;;;;;;;2.13;1.60;;;;;;;9.83;65.22;98994.34;5124267;27;41661;-80
2022/10/10 02:12:25;;;;;;;2.10;1.70;;;;;;;9.65;65.59;98973.28;5092328;28;42476;-79
2022/10/10 02:14:58;;;;;;;1.83;1.63;;;;;;;9.77;65.92;98994.72;5093727;28;43216;-78
2022/10/10 08:31:00;;;;;;;6.47;3.80;;;;;;;22.86;44.30;99120.16;5108509;28;21089;-80
2022/10/10 08:33:28;;;;;;;4.23;3.67;;;;;;;22.18;44.32;99104.13;5091056;28;40294;-88
2022/10/10 08:35:56;;;;;;;7.23;3.70;;;;;;;21.73;44.53;99117.88;5125458;27;42742;-82
2022/10/10 08:38:24;;;;;;;7.80;4.30;;;;;;;21.88;44.83;99117.09;5089949;28;41769;-80
2022/10/10 08:40:54;;;;;;;7.83;4.07;;;;;;;23.24;42.32;99140.28;5107277;28;42581;-80
2022/10/10 08:43:29;;;;;;;5.90;4.20;;;;;;;22.61;41.99;99148.97;5108204;28;40080;-84
2022/10/10 08:46:05;;;;;;;5.13;4.23;;;;;;;22.04;43.68;99132.56;5090444;28;41946;-81
2022/10/10 08:48:33;;;;;;;5.10;4.10;;;;;;;21.69;44.82;99128.13;5089913;28;42786;-78
2022/10/10 08:51:06;;;;;;;4.77;3.93;;;;;;;21.48;44.42;99114.19;5108424;28;42151;-76
2022/10/10 08:53:55;;;;;;;6.07;4.57;;;;;;;21.10;45.57;99094.72;5107539;28;39088;-85
2022/10/10 08:57:11;;;;;;;4.50;3.67;;;;;;;21.77;44.76;99066.16;5091146;28;41176;-89
2022/10/10 08:59:42;;;;;;;5.43;3.70;;;;;;;22.81;43.27;99127.91;5090340;28;42223;-80
2022/10/10 09:02:39;;;;;;;4.50;3.57;;;;;;;22.39;43.92;99118.00;5124623;27;41410;-87
2022/10/10 09:05:14;;;;;;;3.63;3.00;;;;;;;22.00;44.49;99116.88;5123993;27;38704;-81
2022/10/10 09:07:55;;;;;;;4.10;3.57;;;;;;;21.74;45.35;99117.72;5090211;28;41753;-81
2022/10/10 09:10:32;;;;;;;5.10;4.60;;;;;;;21.34;44.65;99087.84;5123457;27;41511;-83
2022/10/10 09:13:09;;;;;;;5.60;4.67;;;;;;;21.20;44.88;99096.47;5089994;28;41487;-84
2022/10/10 09:15:46;;;;;;;7.17;4.60;;;;;;;21.07;45.14;99097.72;5089507;28;39914;-79
2022/10/10 09:18:21;;;;;;;6.10;4.97;;;;;;;20.59;45.70;99056.91;5104013;28;42739;-84
2022/10/10 09:21:06;;;;;;;6.63;4.00;;;;;;;20.67;46.03;99100.03;5089909;28;41554;-86
2022/10/10 09:23:39;;;;;;;5.67;4.37;;;;;;;20.29;46.98;99085.00;5124714;27;41506;-79
2022/10/10 09:26:11;;;;;;;4.87;4.40;;;;;;;20.28;47.55;99115.56;5105030;28;39982;-83
2022/10/10 09:28:48;;;;;;;5.37;4.67;;;;;;;19.80;47.64;99064.75;5089284;28;43108;-88
2022/10/10 09:31:23;;;;;;;5.90;4.10;;;;;;;19.82;48.48;99054.72;5093461;28;42269;-85
2022/10/10 09:33:56;;;;;;;5.23;3.77;;;;;;;20.19;48.66;99068.91;5101475;28;43427;-80
2022/10/10 09:36:33;;;;;;;4.80;3.87;;;;;;;20.51;48.06;99095.38;5101242;28;39343;-83
2022/10/10 09:39:24;;;;;;;5.53;4.13;;;;;;;20.82;48.45;99090.44;5096691;28;41700;-77
2022/10/10 09:41:58;;;;;;;5.70;4.20;;;;;;;21.04;47.85;99054.94;5119892;27;42921;-83
2022/10/10 09:44:26;;;;;;;5.20;4.37;;;;;;;21.72;46.99;99098.16;5094467;28;42558;-79
2022/10/10 09:46:54;;;;;;;7.20;4.20;;;;;;;21.98;46.45;99081.94;5092156;28;39862;-80
2022/10/10 09:49:22;;;;;;;4.77;3.80;;;;;;;22.43;46.17;99081.59;5092127;28;41626;-77
2022/10/10 09:51:51;;;;;;;6.13;4.40;;;;;;;22.56;45.86;99084.66;5075100;28;42880;-79
2022/10/10 09:54:20;;;;;;;5.30;4.30;;;;;;;22.17;45.25;99091.63;5092078;28;43100;-78
2022/10/10 09:56:51;;;;;;;6.20;4.43;;;;;;;21.95;47.11;99082.25;5109090;28;40744;-79
2022/10/10 09:59:39;;;;;;;5.23;4.20;;;;;;;22.39;46.43;99076.69;5090356;28;42660;-79
2022/10/10 10:02:14;;;;;;;5.00;4.50;;;;;;;22.91;45.31;99069.19;5126142;27;44599;-86
2022/10/10 10:04:42;;;;;;;8.77;4.90;;;;;;;23.35;45.10;99093.13;5090340;28;42311;-81
2022/10/10 10:07:25;;;;;;;5.70;4.10;;;;;;;23.45;44.86;99093.78;5092109;28;38853;-77
2022/10/10 10:09:55;;;;;;;5.67;4.10;;;;;;;23.76;43.71;99102.84;5089776;28;42739;-78
2022/10/10 10:12:27;;;;;;;7.10;4.40;;;;;;;23.87;43.54;99115.16;5091438;28;43301;-79
2022/10/10 10:15:01;;;;;;;5.20;4.20;;;;;;;24.07;43.21;99112.91;5074791;28;41923;-79
2022/10/10 10:17:29;;;;;;;5.57;4.00;;;;;;;23.90;43.10;99096.72;5108445;28;39936;-77
2022/10/10 10:19:56;;;;;;;4.57;3.40;;;;;;;24.01;42.90;99114.44;5091622;28;42163;-77
2022/10/10 10:22:46;;;;;;;5.50;3.47;;;;;;;24.26;42.99;99109.78;5092334;28;43959;-76
2022/10/10 10:25:32;;;;;;;3.93;3.63;;;;;;;24.22;42.93;99092.19;5088859;28;41946;-79
2022/10/10 10:28:22;;;;;;;9.90;4.00;;;;;;;24.33;42.61;99110.78;5126079;27;39927;-81
2022/10/10 10:30:54;;;;;;;5.07;3.67;;;;;;;24.33;43.34;99095.38;5089595;28;42279;-79
2022/10/10 10:33:41;;;;;;;3.90;3.50;;;;;;;24.82;42.98;99099.63;5088546;28;43103;-81
2022/10/10 10:36:24;;;;;;;8.30;4.83;;;;;;;25.80;40.66;99121.34;5091230;28;43314;-81
2022/10/10 10:39:03;;;;;;;4.27;3.60;;;;;;;26.92;39.45;99112.72;5109624;28;39076;-77
2022/10/10 10:41:38;;;;;;;4.10;3.67;;;;;;;28.57;36.59;99130.22;5108503;27;41129;-77
2022/10/10 10:44:28;;;;;;;5.13;3.90;;;;;;;29.84;33.67;99138.34;5108199;28;43238;-79
2022/10/10 10:47:07;;;;;;;4.27;3.50;;;;;;;31.26;33.06;99139.06;5092238;28;43102;-81
2022/10/10 10:49:51;;;;;;;3.73;3.07;;;;;;;32.79;30.88;99150.16;5073895;28;41752;-81
2022/10/10 10:52:47;;;;;;;5.40;4.87;;;;;;;34.00;29.21;99157.94;5123897;27;42821;-82
2022/10/10 10:55:29;;;;;;;3.57;3.20;;;;;;;35.06;27.85;99161.31;5092230;28;42686;-80
2022/10/10 10:58:22;;;;;;;4.15;2.85;;;;;;;35.66;27.17;99161.56;5122383;27;42150;-82
2022/10/10 11:00:56;;;;;;;3.53;3.22;;;;;;;35.92;26.12;99171.94;5090604;28;39241;-79
2022/10/10 11:03:36;;;;;;;4.57;2.50;;;;;;;36.64;25.59;99163.56;5088172;28;41362;-81
2022/10/10 11:06:20;;;;;;;4.00;2.95;;;;;;;37.71;24.21;99162.75;5107941;28;41948;-84
2022/10/10 11:09:00;;;;;;;2.58;2.38;;;;;;;38.16;24.14;99152.31;5091078;28;42417;-80
2022/10/10 11:11:53;;;;;;;4.65;2.67;;;;;;;37.78;24.42;99117.47;5090700;28;38958;-80
2022/10/10 11:14:48;;;;;;;3.65;2.28;;;;;;;38.16;24.87;99135.72;5091265;28;41922;-81
2022/10/10 11:17:22;;;;;;;3.17;2.35;;;;;;;37.94;25.04;99133.91;5088729;28;42717;-79
2022/10/10 11:19:56;;;;;;;3.20;2.70;;;;;;;37.45;25.13;99127.72;5122024;27;43026;-82
2022/10/10 11:22:28;;;;;;;5.80;2.50;;;;;;;36.44;26.37;99116.41;5091505;28;40148;-81
2022/10/10 11:25:08;;;;;;;3.67;2.13;;;;;;;36.05;27.03;99098.22;5074039;28;40845;-78
2022/10/10 11:27:43;;;;;;;3.22;2.20;;;;;;;37.27;25.60;99109.59;5091716;28;42807;-80
2022/10/10 11:30:16;;;;;;;5.00;3.00;;;;;;;38.89;23.66;99129.09;5090607;28;41477;-80
2022/10/10 11:32:53;;;;;;;3.13;2.40;;;;;;;40.55;22.66;99129.31;5073991;28;39425;-82
2022/10/10 11:36:08;;;;;;;3.53;2.53;;;;;;;41.90;21.02;99120.28;5074439;28;40844;-84
2022/10/10 11:38:43;;;;;;;3.63;2.42;;;;;;;43.06;20.14;99138.63;5073137;28;41558;-81
2022/10/10 11:41:17;;;;;;;3.22;2.45;;;;;;;44.04;18.92;99138.41;5057162;28;41063;-84
2022/10/10 11:44:21;;;;;;;2.75;1.98;;;;;;;45.04;18.07;99100.25;5073724;28;39139;-83
2022/10/10 11:46:56;;;;;;;3.60;2.08;;;;;;;45.83;17.07;99115.66;5073639;28;40582;-80
2022/10/10 11:49:32;;;;;;;3.40;2.00;;;;;;;46.20;16.49;99111.56;5073280;28;42382;-78
2022/10/10 11:52:16;;;;;;;2.20;1.80;;;;;;;46.69;15.92;99114.03;5090104;28;41015;-82
2022/10/10 11:54:53;;;;;;;4.95;2.38;;;;;;;46.61;16.17;99111.22;5106587;28;38702;-81
2022/10/10 11:57:31;;;;;;;4.57;2.08;;;;;;;45.48;16.42;99109.81;5073114;28;40812;-85
2022/10/10 12:00:05;;;;;;;3.53;2.08;;;;;;;44.32;17.99;99100.16;5073789;28;42112;-82
2022/10/10 12:02:36;;;;;;;4.45;2.17;;;;;;;43.89;17.14;99077.28;5073075;28;41444;-83
2022/10/10 12:05:05;;;;;;;2.55;1.80;;;;;;;44.01;17.11;99094.38;5089034;28;40237;-80
2022/10/10 12:08:01;;;;;;;5.00;2.03;;;;;;;44.94;16.82;99105.25;5095192;28;43031;-83
2022/10/10 12:10:35;;;;;;;4.03;2.10;;;;;;;45.63;16.33;99101.03;5107006;28;43066;-81
2022/10/10 12:13:24;;;;;;;2.42;1.73;;;;;;;45.63;16.62;99094.63;5072815;28;42376;-83
2022/10/10 12:15:58;;;;;;;3.33;2.00;;;;;;;45.47;16.45;99085.78;5089777;28;40870;-84
2022/10/10 12:18:29;;;;;;;3.17;2.08;;;;;;;45.56;16.14;99099.84;5072700;28;41708;-82
2022/10/10 12:21:06;;;;;;;3.58;1.80;;;;;;;44.02;17.44;99084.03;5073243;28;41757;-83
2022/10/10 12:23:36;;;;;;;4.32;2.25;;;;;;;43.29;17.41;99096.75;5106803;28;42412;-84
2022/10/10 12:26:03;;;;;;;4.38;2.20;;;;;;;42.38;18.53;99083.31;5106764;28;41261;-81
2022/10/10 12:28:37;;;;;;;4.78;2.05;;;;;;;42.19;18.36;99081.28;5089613;28;41660;-81
2022/10/10 12:31:30;;;;;;;4.55;1.90;;;;;;;41.96;18.66;99073.78;5120480;27;43352;-79
2022/10/10 12:34:10;;;;;;;4.85;2.50;;;;;;;41.34;19.31;99047.66;5066876;28;42621;-79
2022/10/10 12:37:20;;;;;;;4.72;2.30;;;;;;;39.91;20.60;99044.06;5072710;28;39136;-82
2022/10/10 12:40:20;;;;;;;4.90;2.80;;;;;;;38.16;21.98;99042.50;5072957;28;42353;-81
2022/10/10 12:43:21;;;;;;;7.50;2.45;;;;;;;36.60;23.71;99013.38;5039916;28;41399;-80
2022/10/10 12:45:57;;;;;;;7.47;2.53;;;;;;;35.95;24.51;99022.56;5089373;28;42293;-80
2022/10/10 12:48:27;;;;;;;7.27;2.40;;;;;;;35.11;25.35;99005.31;5089572;28;39378;-78
2022/10/10 12:50:57;;;;;;;5.67;2.80;;;;;;;34.35;25.90;98990.19;5089624;28;43710;-80
2022/10/10 12:53:29;;;;;;;3.57;2.40;;;;;;;34.00;25.73;99019.72;5089117;28;43437;-79
2022/10/10 12:55:59;;;;;;;5.67;2.10;;;;;;;33.67;27.51;98979.94;5072336;28;42327;-78
2022/10/10 12:58:30;;;;;;;4.63;2.13;;;;;;;33.30;27.47;98997.78;5090639;28;39806;-79
2022/10/10 13:01:00;;;;;;;5.87;2.50;;;;;;;33.19;28.19;98989.28;5089775;28;41441;-78
2022/10/10 13:03:34;;;;;;;5.27;2.23;;;;;;;33.61;27.10;98994.66;5071987;28;41970;-80
2022/10/10 13:06:08;;;;;;;4.60;2.83;;;;;;;33.81;27.38;98995.13;5120128;27;42783;-79
2022/10/10 13:08:40;;;;;;;5.87;2.53;;;;;;;33.63;26.81;98987.00;5087379;28;39998;-79
2022/10/10 13:11:10;;;;;;;7.73;2.20;;;;;;;34.45;26.79;98990.38;5087198;28;41824;-80
2022/10/10 13:13:39;;;;;;;4.57;2.20;;;;;;;35.95;25.45;98992.25;5071884;28;42133;-80
2022/10/10 13:16:11;;;;;;;7.23;2.57;;;;;;;37.15;23.85;98994.84;5073319;28;42226;-79
2022/10/10 13:18:44;;;;;;;6.23;2.17;;;;;;;38.03;22.99;99010.59;5075924;28;38672;-81
2022/10/10 13:21:14;;;;;;;5.10;2.57;;;;;;;38.51;22.18;98996.66;5089562;28;41878;-80
2022/10/10 13:23:45;;;;;;;6.90;2.63;;;;;;;39.10;21.99;98985.94;5092569;28;43232;-80
2022/10/10 13:26:21;;;;;;;4.47;2.80;;;;;;;39.66;21.21;99017.19;5093749;28;43011;-80
2022/10/10 13:28:50;;;;;;;6.38;2.40;;;;;;;39.92;20.62;99017.13;5074651;28;42057;-79
2022/10/10 13:31:18;;;;;;;7.50;2.33;;;;;;;40.18;20.43;99027.81;5109123;28;42130;-80
2022/10/10 13:33:48;;;;;;;7.30;2.38;;;;;;;40.41;20.48;99023.59;5109247;28;41753;-80
2022/10/10 13:36:21;;;;;;;7.28;2.85;;;;;;;40.56;20.44;99023.47;5108938;28;42471;-80
2022/10/10 13:38:50;;;;;;;4.28;2.13;;;;;;;40.63;20.11;99025.94;5092421;28;39999;-81
2022/10/10 13:41:19;;;;;;;5.32;2.30;;;;;;;40.78;20.53;99022.28;5091911;28;43646;-83
2022/10/10 13:43:46;;;;;;;4.82;2.03;;;;;;;40.76;19.94;99025.31;5109315;28;41518;-83
2022/10/10 13:46:21;;;;;;;5.22;2.00;;;;;;;40.75;20.20;99017.28;5075032;28;41254;-80
2022/10/10 13:48:50;;;;;;;6.90;2.50;;;;;;;40.67;19.74;99015.94;5109064;28;39429;-78
2022/10/10 13:51:19;;;;;;;6.10;2.97;;;;;;;40.32;19.83;99024.44;5074806;28;41107;-80
2022/10/10 13:53:52;;;;;;;8.45;3.25;;;;;;;40.04;20.27;99023.19;5091928;28;41950;-78
2022/10/10 13:56:28;;;;;;;5.50;2.40;;;;;;;40.06;20.20;99020.97;5090065;28;42386;-79
2022/10/10 13:58:58;;;;;;;4.57;2.38;;;;;;;39.84;20.05;99015.72;5089401;28;39932;-81
2022/10/10 14:01:33;;;;;;;5.13;2.40;;;;;;;39.65;20.23;99025.78;5074984;28;42035;-79
2022/10/10 14:04:08;;;;;;;5.93;2.28;;;;;;;39.42;19.76;99022.53;5092546;28;42852;-84
2022/10/10 14:06:36;;;;;;;9.15;2.95;;;;;;;39.28;19.28;99028.88;5108723;28;40906;-84
2022/10/10 14:09:11;;;;;;;4.93;2.20;;;;;;;38.98;19.96;99029.69;5075489;28;39489;-83
2022/10/10 14:11:41;;;;;;;7.45;2.60;;;;;;;38.59;19.96;99018.28;5108877;28;40400;-81
2022/10/10 14:14:17;;;;;;;7.07;2.93;;;;;;;38.30;20.50;99015.16;5092116;28;42798;-82
2022/10/10 14:16:45;;;;;;;8.90;2.37;;;;;;;38.06;20.92;99007.31;5074324;28;42693;-81
2022/10/10 14:19:18;;;;;;;7.27;2.60;;;;;;;37.80;21.44;99002.75;5092168;28;40671;-83
2022/10/10 14:21:46;;;;;;;6.90;2.47;;;;;;;36.84;22.07;99011.19;5091309;28;43832;-78
2022/10/10 14:24:14;;;;;;;4.10;2.10;;;;;;;35.37;23.25;99002.97;5091439;28;41544;-79
2022/10/10 14:26:42;;;;;;;7.57;2.37;;;;;;;34.13;24.17;99008.41;5091287;28;41236;-79
2022/10/10 14:29:13;;;;;;;6.63;2.60;;;;;;;33.17;25.11;99004.31;5092296;28;39971;-80
2022/10/10 14:31:41;;;;;;;8.17;2.90;;;;;;;32.34;26.23;98994.22;5091303;28;41077;-79
2022/10/10 14:34:09;;;;;;;7.47;2.93;;;;;;;31.55;27.90;98962.31;5091680;28;43123;-82
2022/10/10 14:36:40;;;;;;;5.87;2.10;;;;;;;31.04;28.62;98976.28;5091264;28;41110;-82
2022/10/10 14:39:09;;;;;;;8.07;3.50;;;;;;;30.52;28.62;98972.91;5094295;28;40616;-78
2022/10/10 14:41:37;;;;;;;6.13;2.17;;;;;;;30.08;29.77;98971.06;5059053;28;43480;-81
2022/10/10 14:44:05;;;;;;;6.23;2.77;;;;;;;29.72;30.81;98959.88;5093844;28;42966;-80
2022/10/10 14:46:33;;;;;;;7.47;2.37;;;;;;;29.35;30.76;98964.16;5092041;28;41411;-81
2022/10/10 14:49:00;;;;;;;8.27;2.30;;;;;;;28.95;31.12;98964.22;5093825;28;39877;-80
2022/10/10 14:51:28;;;;;;;7.13;2.40;;;;;;;28.56;32.29;98954.16;5092951;28;42750;-83
2022/10/10 14:53:57;;;;;;;5.47;2.07;;;;;;;28.20;32.59;98949.88;5092396;28;42189;-80
2022/10/10 14:56:25;;;;;;;9.93;3.00;;;;;;;27.79;33.30;98936.34;5108901;28;43376;-78
2022/10/10 14:58:53;;;;;;;5.90;2.30;;;;;;;27.59;33.44;98954.47;5092082;28;40517;-79
2022/10/10 15:01:21;;;;;;;8.70;2.23;;;;;;;27.25;34.15;98949.03;5074959;28;41943;-78
2022/10/10 15:03:49;;;;;;;5.43;2.30;;;;;;;26.95;34.00;98960.16;5093188;28;43840;-79
2022/10/10 15:06:16;;;;;;;10.10;2.67;;;;;;;26.65;34.73;98945.03;5091896;28;42429;-77
2022/10/10 15:08:44;;;;;;;6.30;2.60;;;;;;;26.20;35.62;98914.50;5090809;28;39293;-78
2022/10/10 15:11:16;;;;;;;5.93;2.30;;;;;;;26.03;35.28;98954.63;5090806;28;40619;-79
2022/10/10 15:13:43;;;;;;;8.10;2.13;;;;;;;25.72;36.17;98952.16;5089184;28;42698;-79
2022/10/10 15:16:11;;;;;;;9.10;2.33;;;;;;;25.45;36.09;98957.44;5090305;28;42455;-78
2022/10/10 15:18:39;;;;;;;7.17;2.17;;;;;;;25.13;37.00;98940.50;5073841;28;38970;-79
2022/10/10 15:21:11;;;;;;;6.63;2.37;;;;;;;25.08;37.30;98953.78;5090470;28;41633;-77
2022/10/10 15:23:38;;;;;;;8.63;2.10;;;;;;;24.90;38.35;98950.56;5090439;28;44985;-80
2022/10/10 15:26:07;;;;;;;4.77;1.70;;;;;;;24.61;38.03;98935.91;5124820;27;42071;-80
2022/10/10 15:28:36;;;;;;;4.47;1.67;;;;;;;24.37;38.55;98936.13;5091056;28;39878;-80
2022/10/10 15:31:05;;;;;;;4.53;1.80;;;;;;;24.31;38.72;98958.53;5090450;28;42430;-79
2022/10/10 15:33:33;;;;;;;4.83;2.00;;;;;;;24.14;39.45;98948.81;5090496;28;41789;-78
2022/10/10 15:36:02;;;;;;;5.63;1.87;;;;;;;23.92;39.85;98945.91;5091357;28;43175;-78
2022/10/10 15:38:32;;;;;;;5.27;2.10;;;;;;;23.74;39.90;98949.91;5091045;28;40008;-77
2022/10/10 15:41:02;;;;;;;6.33;2.10;;;;;;;23.58;40.37;98964.34;5073304;28;40600;-77
2022/10/10 15:43:31;;;;;;;6.63;2.27;;;;;;;23.43;40.83;98955.25;5090316;28;41766;-77
2022/10/10 15:46:00;;;;;;;3.27;2.37;;;;;;;23.24;40.71;98951.94;5106979;28;42030;-77
2022/10/10 15:48:28;;;;;;;5.70;1.93;;;;;;;23.14;40.98;98964.78;5091542;28;40513;-77
2022/10/10 15:50:55;;;;;;;5.40;1.97;;;;;;;23.01;41.25;98961.78;5072642;28;40478;-77
2022/10/10 15:53:23;;;;;;;8.30;2.27;;;;;;;22.89;41.47;98971.25;5089774;28;41818;-76
2022/10/10 15:55:51;;;;;;;6.30;1.90;;;;;;;22.78;41.58;98968.91;5106990;28;41078;-78
2022/10/10 15:58:18;;;;;;;5.93;2.07;;;;;;;22.68;41.83;98970.94;5124496;27;39923;-76
2022/10/10 16:00:46;;;;;;;5.60;1.87;;;;;;;22.52;42.28;98961.81;5072805;28;43230;-77
2022/10/10 16:03:15;;;;;;;5.70;2.10;;;;;;;22.34;42.34;98947.66;5073428;28;41185;-78
2022/10/10 16:05:43;;;;;;;6.27;2.00;;;;;;;22.19;42.26;98943.94;5073032;28;42600;-83
2022/10/10 16:08:11;;;;;;;6.53;3.27;;;;;;;22.17;42.75;98957.59;5090599;28;38791;-78
2022/10/10 16:10:41;;;;;;;6.73;2.27;;;;;;;21.90;42.63;98943.53;5091208;28;41741;-83
2022/10/10 16:13:09;;;;;;;4.80;2.00;;;;;;;21.92;42.63;98968.47;5072844;28;43225;-78
2022/10/10 16:15:37;;;;;;;5.27;1.90;;;;;;;;;;5106507;28;41256;-76
2022/10/10 16:18:04;;;;;;;5.23;2.50;;;;;;;21.59;43.48;98981.00;5091060;28;41021;-76
2022/10/10 16:20:33;;;;;;;7.03;3.23;;;;;;;21.35;43.32;98960.19;5072673;28;41650;-76
2022/10/10 16:23:01;;;;;;;6.80;3.43;;;;;;;21.22;43.57;98965.19;5090742;28;43896;-78
2022/10/10 16:25:28;;;;;;;7.37;3.90;;;;;;;21.10;43.74;98969.97;5072232;28;42154;-79
2022/10/10 16:27:56;;;;;;;8.30;4.00;;;;;;;20.95;44.67;98969.72;5091430;28;39910;-81
2022/10/10 16:30:24;;;;;;;5.87;3.30;;;;;;;20.80;44.39;98973.97;5090734;28;41492;-82
2022/10/10 16:32:51;;;;;;;4.33;3.03;;;;;;;20.65;44.63;98978.25;5091775;28;43648;-81
2022/10/10 16:35:19;;;;;;;6.77;2.93;;;;;;;20.32;44.83;98951.06;5090321;28;42042;-78
2022/10/10 16:37:49;;;;;;;5.70;2.97;;;;;;;20.33;45.37;98979.63;5089279;28;39032;-83
2022/10/10 16:40:16;;;;;;;6.47;3.00;;;;;;;20.18;45.47;98974.94;5123790;27;41736;-76
2022/10/10 16:42:44;;;;;;;6.43;3.50;;;;;;;20.02;45.59;98975.66;5072104;28;41738;-76
2022/10/10 16:45:12;;;;;;;4.80;2.73;;;;;;;19.86;46.52;98975.47;5090697;28;42983;-78
2022/10/10 16:47:40;;;;;;;8.93;2.43;;;;;;;19.72;46.59;98983.06;5089410;28;39216;-77
2022/10/10 16:50:08;;;;;;;6.60;2.80;;;;;;;19.58;46.82;98982.72;5089957;28;41804;-78
2022/10/10 16:52:36;;;;;;;6.57;2.57;;;;;;;19.45;47.35;98991.06;5076567;28;42024;-78
2022/10/10 16:55:08;;;;;;;3.93;2.23;;;;;;;19.33;47.28;98989.56;5094184;28;42496;-78
2022/10/10 16:57:36;;;;;;;6.93;2.80;;;;;;;19.21;47.92;98996.97;5093822;28;39194;-78
2022/10/10 17:00:05;;;;;;;8.63;4.43;;;;;;;19.08;48.35;98996.47;5095424;28;41416;-77
2022/10/10 17:02:33;;;;;;;7.53;2.83;;;;;;;18.99;49.01;98989.28;5093750;28;43027;-77
2022/10/10 17:05:00;;;;;;;10.67;3.27;;;;;;;18.89;49.09;98997.38;5094600;28;41138;-82
2022/10/10 17:07:28;;;;;;;7.40;3.20;;;;;;;18.79;50.38;98983.09;5093918;28;40922;-81
2022/10/10 17:09:56;;;;;;;7.43;3.17;;;;;;;18.72;49.95;99000.78;5095549;28;42349;-76
2022/10/10 17:12:25;;;;;;;6.57;3.00;;;;;;;18.63;50.43;99001.66;5094149;28;42766;-81
2022/10/10 17:14:53;;;;;;;6.27;3.00;;;;;;;18.54;49.86;99008.69;5094255;28;41287;-81
2022/10/10 17:17:21;;;;;;;7.30;2.60;;;;;;;18.45;49.81;99009.53;5111052;28;38524;-83
2022/10/10 17:19:49;;;;;;;4.93;2.23;;;;;;;18.37;50.14;99012.06;5093662;28;41862;-81
2022/10/10 17:22:17;;;;;;;6.63;2.30;;;;;;;18.29;50.33;99006.59;5126705;27;43340;-80
2022/10/10 17:24:45;;;;;;;5.63;2.40;;;;;;;18.21;51.32;99004.59;5094104;28;41015;-84
2022/10/10 17:27:13;;;;;;;6.50;2.40;;;;;;;18.12;51.24;99009.94;5094747;28;40952;-84
2022/10/10 17:29:42;;;;;;;3.40;2.23;;;;;;;18.00;51.28;98997.66;5075925;28;41046;-82
2022/10/10 17:32:10;;;;;;;5.10;2.47;;;;;;;17.99;50.70;99015.56;5076266;28;41925;-82
2022/10/10 17:34:38;;;;;;;3.77;2.43;;;;;;;17.81;51.34;98999.31;5093334;28;42890;-81
2022/10/10 17:37:06;;;;;;;4.47;2.43;;;;;;;17.78;51.58;99002.28;5093167;28;40595;-82
2022/10/10 17:39:33;;;;;;;5.40;2.47;;;;;;;17.77;52.15;99015.81;5077053;28;43231;-82
2022/10/10 17:42:03;;;;;;;5.33;2.13;;;;;;;17.72;52.87;99026.06;5126665;27;42582;-80
2022/10/10 17:44:31;;;;;;;8.73;3.30;;;;;;;17.50;53.32;98995.81;5127438;27;42209;-83
2022/10/10 17:47:00;;;;;;;6.57;2.80;;;;;;;17.52;53.15;99017.97;5094068;28;40872;-85
2022/10/10 17:49:28;;;;;;;5.30;2.83;;;;;;;17.42;53.17;99019.75;5092679;28;41788;-85
2022/10/10 17:51:56;;;;;;;4.00;2.97;;;;;;;17.29;52.80;99013.78;5075688;28;42289;-83
2022/10/10 17:54:23;;;;;;;7.50;3.10;;;;;;;17.33;52.69;99033.09;5080292;28;42311;-81
2022/10/10 17:56:51;;;;;;;4.70;3.27;;;;;;;17.26;53.35;99034.63;5095788;28;38753;-77
2022/10/10 17:59:18;;;;;;;5.17;2.93;;;;;;;16.81;53.18;98974.22;5128999;27;42624;-78
2022/10/10 18:01:46;;;;;;;6.13;3.30;;;;;;;17.08;53.00;99037.03;5094178;28;42807;-77
2022/10/10 18:04:15;;;;;;;5.40;3.50;;;;;;;16.99;53.22;99040.53;5094768;28;42340;-77
2022/10/10 18:06:43;;;;;;;8.07;3.53;;;;;;;16.86;53.30;99046.06;5094168;28;40012;-78
2022/10/10 18:09:11;;;;;;;6.30;3.23;;;;;;;16.83;53.37;99044.50;5075594;28;42037;-76
2022/10/10 18:11:39;;;;;;;8.23;3.63;;;;;;;16.75;54.17;99046.13;5075431;28;42924;-79
2022/10/10 18:14:07;;;;;;;7.03;4.33;;;;;;;16.40;54.18;99001.81;5094004;28;42422;-78